ITY343 LFMN-LIRF
Flight info
| Callsign | ITY343 |
|---|---|
| Flight time | 0h 48m |
| Altitude | 33000 |
| Route | SODRI DCT RAPUR DCT RATAP DCT BTA DCT MOULE DCT XOPTA DCT ELB DCT ELKAP |
| Aircraft | A320/M-SDE3FGHIRWY/LB1 |
Departure
| Time | 2026-05-04 15:12 |
|---|---|
| Airport | Nice-Côte d'Azur Airport (LFMN) |
Arrival
| Time | 2026-05-04 16:01 |
|---|---|
| Airport | Rome–Fiumicino Leonardo da Vinci International Airport (LIRF) |
| Time | Latitude | Longitude | Altitude | Speed | Heading |
|---|---|---|---|---|---|
| 2026-05-04 14:45 | 43.66080 | 7.20703 | 21 ft | 0 kts | 261° |
| 2026-05-04 15:00 | 43.66082 | 7.20718 | 21 ft | 4 kts | 261° |
| 2026-05-04 15:01 | 43.66092 | 7.20781 | 24 ft | 4 kts | 223° |
| 2026-05-04 15:01 | 43.66113 | 7.20793 | 22 ft | 3 kts | 171° |
| 2026-05-04 15:01 | 43.66128 | 7.20790 | 23 ft | 0 kts | 171° |
| 2026-05-04 15:05 | 43.66111 | 7.20794 | 23 ft | 3 kts | 169° |
| 2026-05-04 15:05 | 43.66094 | 7.20798 | 23 ft | 2 kts | 172° |
| 2026-05-04 15:05 | 43.66044 | 7.20807 | 22 ft | 10 kts | 172° |
| 2026-05-04 15:05 | 43.65976 | 7.20822 | 22 ft | 10 kts | 176° |
| 2026-05-04 15:06 | 43.65912 | 7.20810 | 21 ft | 10 kts | 198° |
| 2026-05-04 15:06 | 43.65834 | 7.20733 | 21 ft | 14 kts | 223° |
| 2026-05-04 15:06 | 43.65765 | 7.20639 | 21 ft | 13 kts | 225° |
| 2026-05-04 15:07 | 43.65644 | 7.20475 | 21 ft | 11 kts | 224° |
| 2026-05-04 15:07 | 43.65593 | 7.20403 | 21 ft | 10 kts | 226° |
| 2026-05-04 15:07 | 43.65547 | 7.20340 | 21 ft | 9 kts | 224° |
| 2026-05-04 15:07 | 43.65501 | 7.20276 | 21 ft | 9 kts | 224° |
| 2026-05-04 15:08 | 43.65457 | 7.20218 | 21 ft | 11 kts | 224° |
| 2026-05-04 15:08 | 43.65372 | 7.20183 | 21 ft | 14 kts | 164° |
| 2026-05-04 15:08 | 43.65295 | 7.20268 | 21 ft | 15 kts | 136° |
| 2026-05-04 15:08 | 43.65221 | 7.20370 | 21 ft | 15 kts | 135° |
| 2026-05-04 15:09 | 43.65142 | 7.20463 | 21 ft | 15 kts | 155° |
| 2026-05-04 15:09 | 43.65043 | 7.20430 | 22 ft | 16 kts | 220° |
| 2026-05-04 15:09 | 43.64969 | 7.20330 | 21 ft | 14 kts | 225° |
| 2026-05-04 15:10 | 43.64837 | 7.20151 | 21 ft | 12 kts | 217° |
| 2026-05-04 15:10 | 43.64761 | 7.20151 | 22 ft | 12 kts | 146° |
| 2026-05-04 15:10 | 43.64697 | 7.20277 | 23 ft | 7 kts | 66° |
| 2026-05-04 15:11 | 43.64709 | 7.20295 | 25 ft | 0 kts | 43° |
| 2026-05-04 15:11 | 43.64760 | 7.20365 | 23 ft | 37 kts | 46° |
| 2026-05-04 15:11 | 43.65116 | 7.20857 | 22 ft | 105 kts | 45° |
| 2026-05-04 15:12 | 43.65768 | 7.21737 | 58 ft | 151 kts | 46° |
| 2026-05-04 15:12 | 43.66517 | 7.22779 | 631 ft | 155 kts | 53° |
| 2026-05-04 15:12 | 43.66894 | 7.24081 | 1310 ft | 151 kts | 95° |
| 2026-05-04 15:12 | 43.66435 | 7.25490 | 1595 ft | 181 kts | 132° |
| 2026-05-04 15:13 | 43.65409 | 7.26736 | 1974 ft | 204 kts | 135° |
| 2026-05-04 15:13 | 43.64380 | 7.28110 | 2707 ft | 210 kts | 133° |
| 2026-05-04 15:13 | 43.63327 | 7.29522 | 3567 ft | 215 kts | 133° |
| 2026-05-04 15:13 | 43.62249 | 7.30968 | 4468 ft | 216 kts | 134° |
| 2026-05-04 15:14 | 43.61169 | 7.32432 | 5350 ft | 219 kts | 134° |
| 2026-05-04 15:14 | 43.60052 | 7.33877 | 6273 ft | 222 kts | 142° |
| 2026-05-04 15:14 | 43.58679 | 7.34828 | 7291 ft | 219 kts | 159° |
| 2026-05-04 15:14 | 43.57260 | 7.35537 | 8317 ft | 216 kts | 160° |
| 2026-05-04 15:15 | 43.55841 | 7.36254 | 9147 ft | 220 kts | 161° |
| 2026-05-04 15:15 | 43.54382 | 7.36991 | 9794 ft | 227 kts | 162° |
| 2026-05-04 15:15 | 43.52892 | 7.37737 | 10515 ft | 228 kts | 163° |
| 2026-05-04 15:16 | 43.49758 | 7.39321 | 11463 ft | 261 kts | 162° |
| 2026-05-04 15:16 | 43.47971 | 7.40223 | 11734 ft | 285 kts | 163° |
| 2026-05-04 15:16 | 43.43951 | 7.42252 | 12321 ft | 327 kts | 162° |
| 2026-05-04 15:17 | 43.41799 | 7.43348 | 12970 ft | 333 kts | 162° |
| 2026-05-04 15:17 | 43.37407 | 7.45574 | 14344 ft | 342 kts | 163° |
| 2026-05-04 15:17 | 43.35160 | 7.46707 | 15009 ft | 346 kts | 163° |
| 2026-05-04 15:18 | 43.32890 | 7.47849 | 15671 ft | 349 kts | 163° |
| 2026-05-04 15:18 | 43.30601 | 7.49000 | 16320 ft | 352 kts | 163° |
| 2026-05-04 15:18 | 43.28287 | 7.50166 | 16973 ft | 355 kts | 163° |
| 2026-05-04 15:19 | 43.23603 | 7.52522 | 18281 ft | 362 kts | 163° |
| 2026-05-04 15:19 | 43.21228 | 7.53711 | 18834 ft | 365 kts | 163° |
| 2026-05-04 15:19 | 43.16398 | 7.56135 | 19954 ft | 373 kts | 162° |
| 2026-05-04 15:20 | 43.14067 | 7.57769 | 20500 ft | 382 kts | 149° |
| 2026-05-04 15:20 | 43.12040 | 7.60183 | 21018 ft | 392 kts | 134° |
| 2026-05-04 15:20 | 43.10481 | 7.63288 | 21539 ft | 401 kts | 119° |
| 2026-05-04 15:20 | 43.09529 | 7.66916 | 22062 ft | 410 kts | 104° |
| 2026-05-04 15:21 | 43.09042 | 7.70787 | 22589 ft | 415 kts | 101° |
| 2026-05-04 15:21 | 43.08577 | 7.74637 | 23125 ft | 418 kts | 101° |
| 2026-05-04 15:21 | 43.07610 | 7.82545 | 24059 ft | 425 kts | 101° |
| 2026-05-04 15:22 | 43.07142 | 7.86560 | 24460 ft | 429 kts | 101° |
| 2026-05-04 15:22 | 43.06686 | 7.90605 | 24847 ft | 433 kts | 101° |
| 2026-05-04 15:22 | 43.05768 | 7.98805 | 25571 ft | 440 kts | 101° |
| 2026-05-04 15:23 | 43.05297 | 8.02974 | 25921 ft | 444 kts | 101° |
| 2026-05-04 15:23 | 43.04821 | 8.07175 | 26276 ft | 448 kts | 101° |
| 2026-05-04 15:23 | 43.04442 | 8.10477 | 26546 ft | 451 kts | 102° |
| 2026-05-04 15:23 | 43.03949 | 8.14722 | 26886 ft | 454 kts | 102° |
| 2026-05-04 15:24 | 43.02934 | 8.23328 | 27554 ft | 462 kts | 102° |
| 2026-05-04 15:24 | 43.01909 | 8.31998 | 28206 ft | 468 kts | 103° |
| 2026-05-04 15:25 | 43.01182 | 8.36342 | 28495 ft | 468 kts | 111° |
| 2026-05-04 15:25 | 43.00003 | 8.40484 | 28779 ft | 467 kts | 120° |
| 2026-05-04 15:25 | 42.98485 | 8.44410 | 29079 ft | 469 kts | 123° |
| 2026-05-04 15:26 | 42.95371 | 8.52322 | 29687 ft | 475 kts | 123° |
| 2026-05-04 15:26 | 42.93806 | 8.56307 | 29983 ft | 478 kts | 123° |
| 2026-05-04 15:26 | 42.90662 | 8.64295 | 30497 ft | 483 kts | 123° |
| 2026-05-04 15:27 | 42.89068 | 8.68348 | 30704 ft | 486 kts | 124° |
| 2026-05-04 15:27 | 42.85835 | 8.76523 | 31089 ft | 492 kts | 124° |
| 2026-05-04 15:28 | 42.82548 | 8.84792 | 31513 ft | 497 kts | 124° |
| 2026-05-04 15:28 | 42.80920 | 8.88879 | 31808 ft | 497 kts | 124° |
| 2026-05-04 15:28 | 42.77621 | 8.97157 | 32452 ft | 496 kts | 124° |
| 2026-05-04 15:29 | 42.75975 | 9.01285 | 32765 ft | 496 kts | 124° |
| 2026-05-04 15:30 | 42.69478 | 9.17508 | 33047 ft | 480 kts | 125° |
| 2026-05-04 15:30 | 42.64662 | 9.29443 | 33053 ft | 480 kts | 125° |
| 2026-05-04 15:31 | 42.60006 | 9.41491 | 33088 ft | 486 kts | 115° |
| 2026-05-04 15:32 | 42.58823 | 9.55156 | 33064 ft | 496 kts | 82° |
| 2026-05-04 15:32 | 42.60320 | 9.64284 | 33066 ft | 496 kts | 76° |
| 2026-05-04 15:34 | 42.64203 | 9.87064 | 31939 ft | 488 kts | 76° |
| 2026-05-04 15:34 | 42.64967 | 9.91525 | 31510 ft | 483 kts | 76° |
| 2026-05-04 15:34 | 42.66469 | 10.00348 | 30668 ft | 475 kts | 76° |
| 2026-05-04 15:35 | 42.67935 | 10.08973 | 29820 ft | 467 kts | 76° |
| 2026-05-04 15:35 | 42.68663 | 10.13268 | 29350 ft | 463 kts | 76° |
| 2026-05-04 15:35 | 42.69381 | 10.17516 | 28881 ft | 458 kts | 76° |
| 2026-05-04 15:36 | 42.70784 | 10.25864 | 27965 ft | 448 kts | 76° |
| 2026-05-04 15:36 | 42.71471 | 10.29971 | 27531 ft | 443 kts | 76° |
| 2026-05-04 15:36 | 42.72149 | 10.34034 | 27098 ft | 438 kts | 76° |
| 2026-05-04 15:37 | 42.72729 | 10.38080 | 26669 ft | 434 kts | 82° |
| 2026-05-04 15:37 | 42.72945 | 10.42102 | 26251 ft | 430 kts | 90° |
| 2026-05-04 15:37 | 42.72834 | 10.46141 | 25845 ft | 425 kts | 94° |
| 2026-05-04 15:37 | 42.72676 | 10.50137 | 25436 ft | 421 kts | 94° |
| 2026-05-04 15:38 | 42.72519 | 10.54085 | 25032 ft | 416 kts | 94° |
| 2026-05-04 15:38 | 42.72362 | 10.57998 | 24639 ft | 412 kts | 94° |
| 2026-05-04 15:38 | 42.71978 | 10.61834 | 24246 ft | 406 kts | 103° |
| 2026-05-04 15:38 | 42.71185 | 10.65486 | 23863 ft | 401 kts | 112° |
| 2026-05-04 15:39 | 42.70022 | 10.68903 | 23439 ft | 395 kts | 121° |
| 2026-05-04 15:39 | 42.68596 | 10.72071 | 22979 ft | 390 kts | 123° |
| 2026-05-04 15:39 | 42.65750 | 10.78281 | 22085 ft | 383 kts | 124° |
| 2026-05-04 15:40 | 42.64351 | 10.81339 | 21642 ft | 380 kts | 124° |
| 2026-05-04 15:40 | 42.62972 | 10.84348 | 21221 ft | 377 kts | 124° |
| 2026-05-04 15:40 | 42.61588 | 10.87359 | 20797 ft | 374 kts | 124° |
| 2026-05-04 15:40 | 42.60211 | 10.90351 | 20376 ft | 372 kts | 124° |
| 2026-05-04 15:41 | 42.58844 | 10.93315 | 19963 ft | 369 kts | 125° |
| 2026-05-04 15:41 | 42.57485 | 10.96256 | 19557 ft | 367 kts | 125° |
| 2026-05-04 15:41 | 42.56136 | 10.99184 | 19154 ft | 365 kts | 125° |
| 2026-05-04 15:41 | 42.54790 | 11.02102 | 18757 ft | 363 kts | 125° |
| 2026-05-04 15:42 | 42.53454 | 11.04993 | 18356 ft | 361 kts | 125° |
| 2026-05-04 15:42 | 42.52119 | 11.07875 | 17885 ft | 360 kts | 125° |
| 2026-05-04 15:42 | 42.50787 | 11.10747 | 17385 ft | 360 kts | 125° |
| 2026-05-04 15:42 | 42.49471 | 11.13580 | 16899 ft | 360 kts | 125° |
| 2026-05-04 15:43 | 42.48135 | 11.16458 | 16430 ft | 359 kts | 125° |
| 2026-05-04 15:43 | 42.46807 | 11.19313 | 15977 ft | 358 kts | 125° |
| 2026-05-04 15:43 | 42.45483 | 11.22165 | 15522 ft | 357 kts | 124° |
| 2026-05-04 15:43 | 42.44385 | 11.25200 | 15089 ft | 359 kts | 112° |
| 2026-05-04 15:44 | 42.43725 | 11.28465 | 14660 ft | 361 kts | 101° |
| 2026-05-04 15:44 | 42.43354 | 11.31824 | 14233 ft | 360 kts | 99° |
| 2026-05-04 15:44 | 42.43111 | 11.34029 | 13948 ft | 354 kts | 99° |
| 2026-05-04 15:44 | 42.42749 | 11.37268 | 13471 ft | 342 kts | 100° |
| 2026-05-04 15:45 | 42.42391 | 11.40419 | 13003 ft | 336 kts | 100° |
| 2026-05-04 15:45 | 42.42032 | 11.43555 | 12546 ft | 337 kts | 100° |
| 2026-05-04 15:45 | 42.41674 | 11.46684 | 12097 ft | 336 kts | 100° |
| 2026-05-04 15:45 | 42.41207 | 11.50812 | 11499 ft | 331 kts | 100° |
| 2026-05-04 15:46 | 42.40888 | 11.52843 | 11196 ft | 322 kts | 109° |
| 2026-05-04 15:46 | 42.39998 | 11.55554 | 10763 ft | 309 kts | 124° |
| 2026-05-04 15:46 | 42.38708 | 11.57788 | 10332 ft | 296 kts | 138° |
| 2026-05-04 15:46 | 42.37125 | 11.59492 | 9904 ft | 292 kts | 151° |
| 2026-05-04 15:47 | 42.35311 | 11.60653 | 9443 ft | 290 kts | 163° |
| 2026-05-04 15:47 | 42.33403 | 11.61529 | 8979 ft | 290 kts | 163° |
| 2026-05-04 15:47 | 42.31496 | 11.62412 | 8525 ft | 290 kts | 163° |
| 2026-05-04 15:47 | 42.29622 | 11.63286 | 8071 ft | 279 kts | 163° |
| 2026-05-04 15:48 | 42.27831 | 11.64122 | 7703 ft | 265 kts | 162° |
| 2026-05-04 15:48 | 42.26119 | 11.64920 | 7336 ft | 254 kts | 162° |
| 2026-05-04 15:48 | 42.22845 | 11.66365 | 7135 ft | 246 kts | 164° |
| 2026-05-04 15:49 | 42.21213 | 11.67061 | 7140 ft | 245 kts | 164° |
| 2026-05-04 15:49 | 42.19627 | 11.67947 | 6889 ft | 250 kts | 147° |
| 2026-05-04 15:49 | 42.18450 | 11.69658 | 6524 ft | 252 kts | 121° |
| 2026-05-04 15:49 | 42.17700 | 11.71799 | 6138 ft | 252 kts | 117° |
| 2026-05-04 15:50 | 42.16978 | 11.73942 | 5784 ft | 250 kts | 117° |
| 2026-05-04 15:50 | 42.16276 | 11.76044 | 5538 ft | 243 kts | 117° |
| 2026-05-04 15:50 | 42.15590 | 11.78091 | 5293 ft | 236 kts | 117° |
| 2026-05-04 15:50 | 42.14928 | 11.80050 | 5052 ft | 230 kts | 118° |
| 2026-05-04 15:51 | 42.14262 | 11.82011 | 4805 ft | 225 kts | 118° |
| 2026-05-04 15:51 | 42.13618 | 11.83905 | 4554 ft | 220 kts | 118° |
| 2026-05-04 15:51 | 42.12993 | 11.85743 | 4307 ft | 216 kts | 118° |
| 2026-05-04 15:51 | 42.12374 | 11.87566 | 4112 ft | 212 kts | 118° |
| 2026-05-04 15:52 | 42.11757 | 11.89374 | 4059 ft | 213 kts | 118° |
| 2026-05-04 15:52 | 42.11130 | 11.91202 | 4069 ft | 216 kts | 118° |
| 2026-05-04 15:52 | 42.10499 | 11.93043 | 4067 ft | 216 kts | 118° |
| 2026-05-04 15:52 | 42.09870 | 11.94882 | 4072 ft | 216 kts | 118° |
| 2026-05-04 15:53 | 42.09244 | 11.96714 | 3993 ft | 215 kts | 118° |
| 2026-05-04 15:53 | 42.08623 | 11.98532 | 3829 ft | 212 kts | 118° |
| 2026-05-04 15:53 | 42.08010 | 12.00325 | 3654 ft | 210 kts | 118° |
| 2026-05-04 15:53 | 42.07398 | 12.02108 | 3485 ft | 211 kts | 118° |
| 2026-05-04 15:54 | 42.06782 | 12.03903 | 3307 ft | 211 kts | 118° |
| 2026-05-04 15:54 | 42.06167 | 12.05693 | 3175 ft | 211 kts | 117° |
| 2026-05-04 15:54 | 42.05553 | 12.07477 | 3105 ft | 210 kts | 118° |
| 2026-05-04 15:54 | 42.04934 | 12.09269 | 3112 ft | 212 kts | 117° |
| 2026-05-04 15:55 | 42.04312 | 12.11075 | 3116 ft | 213 kts | 117° |
| 2026-05-04 15:55 | 42.03697 | 12.12862 | 3115 ft | 213 kts | 118° |
| 2026-05-04 15:55 | 42.03076 | 12.14670 | 3118 ft | 213 kts | 118° |
| 2026-05-04 15:55 | 42.02477 | 12.16424 | 3116 ft | 201 kts | 118° |
| 2026-05-04 15:56 | 42.01849 | 12.18053 | 3112 ft | 192 kts | 130° |
| 2026-05-04 15:56 | 42.00878 | 12.19223 | 3014 ft | 186 kts | 153° |
| 2026-05-04 15:56 | 41.99679 | 12.19832 | 3011 ft | 184 kts | 165° |
| 2026-05-04 15:56 | 41.98460 | 12.20334 | 2886 ft | 179 kts | 165° |
| 2026-05-04 15:57 | 41.97282 | 12.20825 | 2648 ft | 175 kts | 163° |
| 2026-05-04 15:57 | 41.96133 | 12.21306 | 2420 ft | 171 kts | 164° |
| 2026-05-04 15:57 | 41.95010 | 12.21778 | 2193 ft | 166 kts | 164° |
| 2026-05-04 15:57 | 41.93929 | 12.22232 | 1971 ft | 162 kts | 165° |
| 2026-05-04 15:58 | 41.92899 | 12.22666 | 1753 ft | 147 kts | 165° |
| 2026-05-04 15:58 | 41.91967 | 12.23058 | 1589 ft | 136 kts | 166° |
| 2026-05-04 15:58 | 41.91077 | 12.23431 | 1397 ft | 132 kts | 165° |
| 2026-05-04 15:58 | 41.90208 | 12.23795 | 1224 ft | 130 kts | 164° |
| 2026-05-04 15:59 | 41.89349 | 12.24156 | 1045 ft | 129 kts | 164° |
| 2026-05-04 15:59 | 41.88489 | 12.24519 | 841 ft | 131 kts | 164° |
| 2026-05-04 15:59 | 41.87624 | 12.24878 | 680 ft | 129 kts | 166° |
| 2026-05-04 15:59 | 41.86760 | 12.25237 | 511 ft | 131 kts | 164° |
| 2026-05-04 16:00 | 41.85889 | 12.25616 | 353 ft | 132 kts | 163° |
| 2026-05-04 16:00 | 41.85016 | 12.25981 | 181 ft | 131 kts | 165° |
| 2026-05-04 16:00 | 41.84156 | 12.26338 | 27 ft | 127 kts | 165° |
| 2026-05-04 16:00 | 41.83436 | 12.26637 | 14 ft | 85 kts | 162° |
| 2026-05-04 16:01 | 41.83020 | 12.26810 | 12 ft | 47 kts | 163° |
| 2026-05-04 16:01 | 41.82751 | 12.26871 | 13 ft | 34 kts | 181° |
| 2026-05-04 16:01 | 41.82536 | 12.26819 | 10 ft | 27 kts | 193° |
| 2026-05-04 16:01 | 41.82357 | 12.26784 | 11 ft | 26 kts | 178° |
| 2026-05-04 16:02 | 41.82186 | 12.26840 | 11 ft | 25 kts | 163° |
| 2026-05-04 16:02 | 41.82020 | 12.26917 | 11 ft | 25 kts | 159° |
| 2026-05-04 16:02 | 41.81688 | 12.27046 | 12 ft | 25 kts | 163° |
| 2026-05-04 16:03 | 41.81522 | 12.27116 | 14 ft | 25 kts | 161° |
| 2026-05-04 16:03 | 41.81356 | 12.27185 | 12 ft | 25 kts | 163° |
| 2026-05-04 16:03 | 41.81189 | 12.27254 | 12 ft | 25 kts | 163° |
| 2026-05-04 16:03 | 41.81021 | 12.27325 | 12 ft | 25 kts | 162° |
| 2026-05-04 16:04 | 41.80850 | 12.27337 | 12 ft | 25 kts | 190° |
| 2026-05-04 16:04 | 41.80614 | 12.27077 | 13 ft | 23 kts | 250° |
| 2026-05-04 16:04 | 41.80558 | 12.26870 | 14 ft | 24 kts | 249° |
| 2026-05-04 16:05 | 41.80499 | 12.26655 | 17 ft | 25 kts | 250° |
| 2026-05-04 16:05 | 41.80449 | 12.26473 | 15 ft | 15 kts | 250° |
| 2026-05-04 16:05 | 41.80355 | 12.26373 | 14 ft | 0 kts | 169° |
| 2026-05-04 16:07 | 41.80324 | 12.26384 | 14 ft | 10 kts | 162° |
| 2026-05-04 16:07 | 41.80062 | 12.26310 | 16 ft | 17 kts | 204° |
| 2026-05-04 16:08 | 41.79949 | 12.26241 | 14 ft | 19 kts | 205° |
| 2026-05-04 16:08 | 41.79769 | 12.26065 | 14 ft | 12 kts | 291° |
| 2026-05-04 16:09 | 41.79829 | 12.25884 | 14 ft | 9 kts | 300° |
| 2026-05-04 16:09 | 41.79886 | 12.25728 | 16 ft | 14 kts | 295° |
| 2026-05-04 16:10 | 41.79904 | 12.25602 | 15 ft | 4 kts | 212° |
| 2026-05-04 16:11 | 41.79858 | 12.25574 | 15 ft | 0 kts | 205° |